Terminal Aerodrome Forecast
Issued by NWS Sioux Falls, SD

Home | Current Version | Previous Version | Graphics & Text | Print | Product List | Glossary On
Versions: 1 2 3 4 5 6 7 8 9 10 11 12 13 14 15 16 17 18 19
770
FTUS43 KFSD 271120
TAFFSD
TAF
KFSD 271120Z 2712/2812 VRB03KT P6SM OVC050
     FM271900 15005KT P6SM BKN045
     FM272000 05005KT P6SM BKN045
     FM272100 02005KT P6SM BKN040 PROB30 2803/2806 4SM TSRA OVC025CB
     FM280600 04005KT P6SM SHRA VCTS OVC050CB
     FM280900 02005KT 5SM SHRA OVC035=

USA.gov is the U.S. government's official web portal to all federal, state and local government web resources and services.